Bowring, Oklahoma
Current Conditions -  °F | °C
As of 2:53 PM on Tuesday 27 Jan 2015 (Local Time) from KBVO Reporting Station
Clear Clear  
Wind Chill: 68°   Ceiling: Unl
Heat Index: 68°   Visibility: 10mi
Dew Point: 35°   Wind: 8mph
Humidity: 30%   Direction: 130°SE
Pressure: 30.09"   Gusts: NA
Location:  36.88°N, 96.12°W
Report Text: KBVO 272053Z AUTO 13007KT 10SM CLR 20/02 A3009 RMK AO2 SLP186 T02000017 56026
Loading
Personal Weather Stations






























Interactive Weather Map New forecast layout! Learn more

10-Day Weather Forecast

Advertisements
Track Severe Weather on mobile